Time;durP1;ratioP1;P1;durP2;ratioP2;P2;SDS_P1;SDS_P2;PMS_P1;PMS_P2;Temp;Humidity;BMP_temperature;BMP_pressure;BME280_temperature;BME280_humidity;BME280_pressure;Samples;Min_cycle;Max_cycle;Signal;HPM_P1;HPM_P2
2022/05/17 00:01:55;;;;;;;2.73;1.90;;;;;;;;;;5003137;28;20216;-63
2022/05/17 00:04:24;;;;;;;2.93;2.17;;;;;;;;;;5000974;28;20203;-64
2022/05/17 00:06:51;;;;;;;5.17;2.50;;;;;;;;;;4991915;28;20658;-64
2022/05/17 00:09:20;;;;;;;4.10;2.00;;;;;;;;;;4992501;28;20573;-63
2022/05/17 00:11:48;;;;;;;4.60;2.17;;;;;;;;;;5009364;28;20314;-64
2022/05/17 00:14:19;;;;;;;3.47;2.23;;;;;;;;;;5005541;28;20228;-64
2022/05/17 00:16:46;;;;;;;3.67;1.87;;;;;;;;;;4997224;28;20257;-63
2022/05/17 00:19:19;;;;;;;4.23;2.30;;;;;;;;;;5009686;28;20192;-63
2022/05/17 00:21:49;;;;;;;4.53;2.53;;;;;;;;;;5007502;28;20195;-63
2022/05/17 00:24:21;;;;;;;3.27;2.00;;;;;;;;;;5008067;28;20184;-63
2022/05/17 00:26:55;;;;;;;5.30;2.20;;;;;;;;;;5004163;28;20203;-63
2022/05/17 00:29:26;;;;;;;4.77;2.20;;;;;;;;;;5006451;28;20239;-63
2022/05/17 00:31:55;;;;;;;3.43;2.13;;;;;;;;;;5004434;28;20259;-63
2022/05/17 00:34:25;;;;;;;5.00;2.20;;;;;;;;;;5006120;28;20226;-63
2022/05/17 00:36:56;;;;;;;6.03;2.30;;;;;;;;;;4991766;28;20211;-63
2022/05/17 00:39:27;;;;;;;4.10;2.33;;;;;;;;;;5008389;28;20191;-64
2022/05/17 00:41:56;;;;;;;4.40;2.33;;;;;;;;;;4992045;28;20403;-63
2022/05/17 00:44:45;;;;;;;4.40;2.37;;;;;;;;;;5004518;28;20214;-63
2022/05/17 00:47:25;;;;;;;5.30;2.80;;;;;;;;;;5005248;28;20195;-64
2022/05/17 00:50:11;;;;;;;4.20;2.60;;;;;;;;;;5008538;28;20207;-63
2022/05/17 00:52:58;;;;;;;5.47;2.57;;;;;;;;;;4987650;28;20210;-63
2022/05/17 00:55:34;;;;;;;4.03;2.50;;;;;;;;;;5014966;28;20210;-63
2022/05/17 00:58:20;;;;;;;3.73;2.30;;;;;;;;;;5006682;28;20203;-63
2022/05/17 01:00:54;;;;;;;6.73;3.00;;;;;;;;;;5012528;28;20203;-63
2022/05/17 01:03:30;;;;;;;4.53;2.27;;;;;;;;;;5022129;28;20199;-63
2022/05/17 01:05:59;;;;;;;3.37;2.07;;;;;;;;;;5005288;28;20553;-63
2022/05/17 01:08:27;;;;;;;5.57;2.50;;;;;;;;;;5005786;28;20524;-63
2022/05/17 01:10:58;;;;;;;6.00;2.70;;;;;;;;;;5010993;28;20227;-63
2022/05/17 01:16:17;;;;;;;3.37;2.50;;;;;;;;;;5008292;28;20618;-63
2022/05/17 01:18:47;;;;;;;3.37;2.43;;;;;;;;;;5005352;28;20434;-63
2022/05/17 01:21:15;;;;;;;5.90;2.63;;;;;;;;;;5009869;28;20184;-63
2022/05/17 01:23:42;;;;;;;3.93;2.40;;;;;;;;;;4991439;28;20212;-63
2022/05/17 01:26:14;;;;;;;5.77;2.60;;;;;;;;;;4996328;28;20547;-63
2022/05/17 01:28:42;;;;;;;3.73;2.50;;;;;;;;;;4986547;28;20220;-63
2022/05/17 01:31:14;;;;;;;3.90;2.63;;;;;;;;;;5009627;28;20649;-63
2022/05/17 01:33:44;;;;;;;4.83;2.40;;;;;;;;;;4991512;28;20298;-63
2022/05/17 01:36:16;;;;;;;4.70;2.37;;;;;;;;;;5012875;28;20195;-63
2022/05/17 01:38:50;;;;;;;3.37;2.43;;;;;;;;;;5008059;28;20232;-63
2022/05/17 01:41:20;;;;;;;4.83;2.63;;;;;;;;;;5009237;28;20225;-63
2022/05/17 01:43:53;;;;;;;4.87;2.37;;;;;;;;;;5008554;28;20642;-63
2022/05/17 01:46:24;;;;;;;2.50;2.20;;;;;;;;;;5004755;28;20204;-64
2022/05/17 01:48:53;;;;;;;3.50;2.60;;;;;;;;;;5007338;28;20206;-63
2022/05/17 01:51:22;;;;;;;3.50;2.40;;;;;;;;;;4991535;28;20250;-63
2022/05/17 01:53:52;;;;;;;4.43;2.80;;;;;;;;;;5005420;28;20745;-63
2022/05/17 01:56:21;;;;;;;5.30;2.67;;;;;;;;;;5004420;28;20227;-63
2022/05/17 01:58:50;;;;;;;5.60;2.60;;;;;;;;;;5023082;28;20203;-63
2022/05/17 02:01:20;;;;;;;3.27;2.20;;;;;;;;;;5012772;28;20567;-63
2022/05/17 02:03:52;;;;;;;4.67;2.50;;;;;;;;;;5007847;28;20204;-63
2022/05/17 02:06:24;;;;;;;5.07;2.70;;;;;;;;;;4990672;28;20310;-63
2022/05/17 02:08:55;;;;;;;3.90;2.40;;;;;;;;;;5004334;28;20204;-63
2022/05/17 02:11:28;;;;;;;3.43;2.60;;;;;;;;;;5005562;28;20230;-63
2022/05/17 02:13:56;;;;;;;4.80;2.83;;;;;;;;;;5007678;28;20219;-63
2022/05/17 02:16:29;;;;;;;3.40;2.23;;;;;;;;;;4983055;28;20215;-63
2022/05/17 02:19:01;;;;;;;5.00;3.00;;;;;;;;;;5007269;28;20198;-63
2022/05/17 02:21:31;;;;;;;4.47;2.77;;;;;;;;;;5008495;28;20202;-63
2022/05/17 02:24:01;;;;;;;5.00;2.43;;;;;;;;;;5006158;28;20206;-63
2022/05/17 02:26:36;;;;;;;4.03;2.70;;;;;;;;;;5004234;28;20223;-63
2022/05/17 02:29:10;;;;;;;3.27;2.33;;;;;;;;;;5000482;28;20255;-63
2022/05/17 02:31:41;;;;;;;6.63;2.90;;;;;;;;;;5002708;28;20214;-63
2022/05/17 02:34:10;;;;;;;4.40;2.40;;;;;;;;;;5006388;28;20227;-63
2022/05/17 02:36:39;;;;;;;3.87;2.90;;;;;;;;;;5004438;28;20196;-63
2022/05/17 02:39:15;;;;;;;5.13;2.20;;;;;;;;;;5007064;28;20200;-62
2022/05/17 02:41:43;;;;;;;3.93;2.67;;;;;;;;;;5005557;28;20274;-62
2022/05/17 02:44:16;;;;;;;4.03;2.60;;;;;;;;;;5006787;28;20203;-63
2022/05/17 02:46:45;;;;;;;5.60;3.00;;;;;;;;;;5007475;28;20227;-63
2022/05/17 02:49:12;;;;;;;3.77;2.40;;;;;;;;;;5006267;28;20198;-63
2022/05/17 02:51:41;;;;;;;5.03;2.80;;;;;;;;;;4990401;28;20583;-63
2022/05/17 02:54:13;;;;;;;3.60;2.80;;;;;;;;;;5003751;28;20735;-63
2022/05/17 02:56:42;;;;;;;4.33;2.73;;;;;;;;;;5003651;28;20200;-63
2022/05/17 02:59:17;;;;;;;3.93;2.30;;;;;;;;;;4988609;28;20207;-63
2022/05/17 03:01:53;;;;;;;4.77;2.67;;;;;;;;;;5008618;28;20188;-63
2022/05/17 03:04:20;;;;;;;3.63;2.67;;;;;;;;;;5003590;28;20815;-63
2022/05/17 03:06:52;;;;;;;3.30;2.50;;;;;;;;;;5008778;28;20206;-63
2022/05/17 03:09:22;;;;;;;4.87;2.33;;;;;;;;;;5005840;28;20207;-63
2022/05/17 03:11:52;;;;;;;3.60;2.50;;;;;;;;;;5010135;28;20254;-63
2022/05/17 03:14:22;;;;;;;3.90;2.73;;;;;;;;;;5003238;28;20216;-63
2022/05/17 03:16:56;;;;;;;3.30;2.60;;;;;;;;;;4999859;28;20606;-63
2022/05/17 03:19:25;;;;;;;4.27;2.60;;;;;;;;;;5006125;28;20569;-64
2022/05/17 03:21:52;;;;;;;5.50;2.77;;;;;;;;;;5008500;28;20274;-63
2022/05/17 03:24:19;;;;;;;4.10;2.77;;;;;;;;;;5005606;28;20210;-63
2022/05/17 03:27:08;;;;;;;5.17;3.17;;;;;;;;;;5005953;28;20195;-64
2022/05/17 03:29:37;;;;;;;5.23;2.57;;;;;;;;;;5003175;28;20200;-64
2022/05/17 03:32:09;;;;;;;4.10;2.80;;;;;;;;;;5008378;28;20216;-64
2022/05/17 03:34:42;;;;;;;3.37;2.83;;;;;;;;;;5003659;28;20281;-64
2022/05/17 03:37:10;;;;;;;5.07;2.93;;;;;;;;;;4993453;28;20754;-64
2022/05/17 03:39:37;;;;;;;4.30;3.00;;;;;;;;;;4990499;28;20211;-64
2022/05/17 03:42:09;;;;;;;4.10;2.67;;;;;;;;;;5009947;28;20230;-64
2022/05/17 03:44:40;;;;;;;4.57;2.50;;;;;;;;;;5008532;28;20200;-64
2022/05/17 03:47:10;;;;;;;3.93;2.30;;;;;;;;;;4995435;28;20294;-64
2022/05/17 03:49:39;;;;;;;5.70;2.60;;;;;;;;;;5011259;28;20217;-63
2022/05/17 03:52:11;;;;;;;4.30;2.60;;;;;;;;;;4995175;28;20203;-64
2022/05/17 03:54:41;;;;;;;4.17;2.90;;;;;;;;;;5005189;28;20235;-64
2022/05/17 03:57:10;;;;;;;4.03;2.67;;;;;;;;;;4995549;28;20187;-63
2022/05/17 03:59:45;;;;;;;3.80;2.70;;;;;;;;;;5010385;28;20191;-63
2022/05/17 04:02:15;;;;;;;4.37;2.77;;;;;;;;;;5020342;28;20200;-62
2022/05/17 04:04:46;;;;;;;4.10;2.60;;;;;;;;;;5005783;28;20214;-62
2022/05/17 04:07:17;;;;;;;4.70;2.80;;;;;;;;;;5027368;28;20223;-64
2022/05/17 04:09:47;;;;;;;5.40;3.20;;;;;;;;;;5011419;28;20192;-64
2022/05/17 04:12:15;;;;;;;4.33;2.90;;;;;;;;;;4995812;28;20929;-64
2022/05/17 04:14:43;;;;;;;5.67;3.03;;;;;;;;;;4988922;28;20313;-64
2022/05/17 04:17:16;;;;;;;4.30;3.13;;;;;;;;;;5002138;28;20215;-63
2022/05/17 04:19:43;;;;;;;7.53;3.20;;;;;;;;;;5005906;28;20216;-63
2022/05/17 04:22:16;;;;;;;5.43;2.57;;;;;;;;;;5010666;28;20203;-63
2022/05/17 04:24:45;;;;;;;3.50;2.50;;;;;;;;;;5005995;28;20203;-64
2022/05/17 04:27:15;;;;;;;6.30;3.30;;;;;;;;;;5010628;28;20210;-64
2022/05/17 04:29:47;;;;;;;6.67;2.90;;;;;;;;;;4998203;28;20228;-64
2022/05/17 04:32:15;;;;;;;6.50;3.07;;;;;;;;;;5009241;28;20196;-64
2022/05/17 04:34:42;;;;;;;6.10;3.00;;;;;;;;;;5005243;28;20222;-63
2022/05/17 04:37:09;;;;;;;4.40;3.20;;;;;;;;;;5009342;28;20188;-63
2022/05/17 04:39:37;;;;;;;5.50;2.77;;;;;;;;;;5011926;28;20395;-63
2022/05/17 04:42:04;;;;;;;4.10;3.00;;;;;;;;;;4978470;28;20211;-63
2022/05/17 04:44:31;;;;;;;4.53;2.90;;;;;;;;;;5007184;28;20621;-63
2022/05/17 04:46:58;;;;;;;5.30;3.10;;;;;;;;;;5011093;28;20198;-63
2022/05/17 04:49:25;;;;;;;5.50;2.90;;;;;;;;;;5013359;28;20208;-63
2022/05/17 04:51:53;;;;;;;4.43;2.73;;;;;;;;;;5001642;28;20212;-64
2022/05/17 04:54:20;;;;;;;5.30;2.93;;;;;;;;;;5006834;28;20545;-63
2022/05/17 04:56:47;;;;;;;4.00;2.97;;;;;;;;;;5008089;28;20388;-63
2022/05/17 04:59:21;;;;;;;5.03;3.10;;;;;;;;;;5008090;28;20231;-63
2022/05/17 05:01:49;;;;;;;7.67;3.43;;;;;;;;;;5008679;28;20196;-64
2022/05/17 05:04:17;;;;;;;4.80;3.23;;;;;;;;;;5008802;28;20211;-64
2022/05/17 05:06:44;;;;;;;4.93;3.40;;;;;;;;;;5001478;28;20219;-63
2022/05/17 05:09:11;;;;;;;5.97;3.60;;;;;;;;;;5007463;28;20633;-63
2022/05/17 05:11:39;;;;;;;6.47;3.80;;;;;;;;;;4989991;28;20278;-64
2022/05/17 05:14:08;;;;;;;4.43;3.63;;;;;;;;;;5008936;28;20258;-64
2022/05/17 05:16:38;;;;;;;5.23;3.70;;;;;;;;;;4981367;28;20233;-63
2022/05/17 05:19:08;;;;;;;6.80;3.67;;;;;;;;;;5012482;28;20274;-64
2022/05/17 05:21:41;;;;;;;4.67;3.50;;;;;;;;;;5008870;28;20199;-64
2022/05/17 05:24:11;;;;;;;5.80;3.33;;;;;;;;;;5009186;28;20207;-63
2022/05/17 05:26:39;;;;;;;9.10;3.60;;;;;;;;;;4988560;28;20577;-65
2022/05/17 05:29:08;;;;;;;7.00;3.30;;;;;;;;;;4989380;28;20255;-64
2022/05/17 05:31:37;;;;;;;6.50;3.93;;;;;;;;;;5008660;28;20262;-64
2022/05/17 05:34:05;;;;;;;73.53;22.17;;;;;;;;;;5009036;28;20202;-64
2022/05/17 05:36:35;;;;;;;41.57;13.93;;;;;;;;;;4996607;28;20201;-62
2022/05/17 05:39:05;;;;;;;33.23;12.40;;;;;;;;;;4998477;28;20205;-62
2022/05/17 05:41:35;;;;;;;22.03;10.10;;;;;;;;;;4996498;28;20209;-62
2022/05/17 05:44:07;;;;;;;21.53;7.97;;;;;;;;;;4998177;28;20230;-61
2022/05/17 05:46:38;;;;;;;19.93;7.67;;;;;;;;;;4995637;28;20199;-61
2022/05/17 05:49:10;;;;;;;12.10;6.07;;;;;;;;;;4999966;28;20223;-62
2022/05/17 05:51:46;;;;;;;14.37;5.80;;;;;;;;;;4998866;28;20199;-64
2022/05/17 05:54:23;;;;;;;14.20;5.60;;;;;;;;;;5001397;28;20215;-63
2022/05/17 05:56:58;;;;;;;8.23;5.03;;;;;;;;;;5019494;28;20336;-63
2022/05/17 05:59:32;;;;;;;9.10;4.63;;;;;;;;;;5008747;28;20205;-63
2022/05/17 06:02:01;;;;;;;9.57;4.33;;;;;;;;;;4973828;28;20191;-64
2022/05/17 06:04:34;;;;;;;7.83;4.70;;;;;;;;;;5001254;28;20235;-63
2022/05/17 06:07:04;;;;;;;8.90;4.27;;;;;;;;;;5007032;28;20210;-63
2022/05/17 06:09:35;;;;;;;9.23;4.13;;;;;;;;;;4990527;28;20207;-63
2022/05/17 06:12:07;;;;;;;9.60;5.33;;;;;;;;;;5007994;28;20305;-62
2022/05/17 06:14:39;;;;;;;9.10;4.10;;;;;;;;;;5004701;28;20241;-63
2022/05/17 06:17:11;;;;;;;7.27;4.13;;;;;;;;;;5003062;28;20216;-64
2022/05/17 06:19:41;;;;;;;9.00;4.43;;;;;;;;;;5008122;28;20676;-63
2022/05/17 06:22:10;;;;;;;5.63;3.37;;;;;;;;;;5009922;28;20657;-63
2022/05/17 06:24:40;;;;;;;8.23;4.10;;;;;;;;;;5007268;28;20293;-63
2022/05/17 06:27:14;;;;;;;11.23;4.10;;;;;;;;;;5006115;28;20649;-63
2022/05/17 06:29:45;;;;;;;8.87;3.83;;;;;;;;;;4973892;28;20924;-63
2022/05/17 06:32:17;;;;;;;5.83;3.27;;;;;;;;;;5002635;28;20192;-64
2022/05/17 06:34:47;;;;;;;6.87;3.33;;;;;;;;;;5021760;28;20234;-63
2022/05/17 06:37:17;;;;;;;6.37;3.57;;;;;;;;;;5006510;28;20188;-62
2022/05/17 06:39:48;;;;;;;6.63;3.37;;;;;;;;;;5003940;28;20815;-62
2022/05/17 06:42:17;;;;;;;10.27;3.60;;;;;;;;;;5004995;28;20218;-63
2022/05/17 06:44:50;;;;;;;8.30;4.27;;;;;;;;;;4985758;28;20208;-61
2022/05/17 06:47:18;;;;;;;7.57;4.13;;;;;;;;;;5007056;28;20203;-62
2022/05/17 06:49:48;;;;;;;6.13;3.70;;;;;;;;;;5010550;28;20212;-62
2022/05/17 06:52:18;;;;;;;8.23;4.13;;;;;;;;;;5011604;28;20195;-63
2022/05/17 06:54:51;;;;;;;6.90;3.80;;;;;;;;;;5008652;28;20701;-63
2022/05/17 06:57:28;;;;;;;6.73;3.90;;;;;;;;;;5006165;28;20184;-63
2022/05/17 06:59:59;;;;;;;7.60;3.87;;;;;;;;;;5008475;28;20784;-63
2022/05/17 07:02:29;;;;;;;7.13;3.73;;;;;;;;;;5019056;28;20192;-62
2022/05/17 07:04:59;;;;;;;7.57;3.77;;;;;;;;;;4984439;28;20293;-62
2022/05/17 07:07:27;;;;;;;6.37;3.73;;;;;;;;;;5015278;28;20195;-62
2022/05/17 07:15:39;;;;;;;43.33;13.03;;;;;;;;;;4990430;28;20597;-62
2022/05/17 07:18:23;;;;;;;22.30;8.23;;;;;;;;;;4981139;28;20288;-63
2022/05/17 07:20:55;;;;;;;12.23;6.87;;;;;;;;;;4989392;28;20192;-63
2022/05/17 07:23:28;;;;;;;9.83;5.30;;;;;;;;;;5001451;28;20196;-63
2022/05/17 07:25:58;;;;;;;12.77;6.40;;;;;;;;;;4987008;28;20191;-63
2022/05/17 07:28:31;;;;;;;11.50;5.97;;;;;;;;;;4980518;28;20644;-64
2022/05/17 07:31:04;;;;;;;10.33;5.97;;;;;;;;;;4987914;28;20219;-61
2022/05/17 07:33:35;;;;;;;9.00;5.57;;;;;;;;;;4985781;28;20193;-63
2022/05/17 07:36:08;;;;;;;7.70;5.37;;;;;;;;;;4992479;28;20227;-62
2022/05/17 07:38:41;;;;;;;8.27;5.70;;;;;;;;;;4982310;28;21159;-63
2022/05/17 07:41:13;;;;;;;10.50;5.73;;;;;;;;;;4984920;28;20211;-63
2022/05/17 07:43:40;;;;;;;8.80;5.10;;;;;;;;;;4969373;28;20192;-64
2022/05/17 07:46:07;;;;;;;7.73;5.47;;;;;;;;;;4972608;28;20215;-62
2022/05/17 07:48:36;;;;;;;7.07;5.20;;;;;;;;;;4983687;28;20200;-63
2022/05/17 07:51:07;;;;;;;10.90;5.30;;;;;;;;;;4988330;28;20824;-62
2022/05/17 07:53:39;;;;;;;10.87;5.53;;;;;;;;;;4983244;28;20227;-64
2022/05/17 07:56:07;;;;;;;8.90;5.30;;;;;;;;;;4969714;28;20224;-66
2022/05/17 07:58:34;;;;;;;6.67;4.70;;;;;;;;;;4989076;28;20204;-68
2022/05/17 08:01:02;;;;;;;8.17;4.50;;;;;;;;;;4973564;28;20207;-66
2022/05/17 08:03:30;;;;;;;7.80;3.67;;;;;;;;;;4966974;28;20197;-67
2022/05/17 08:05:59;;;;;;;6.23;3.90;;;;;;;;;;4984014;28;20686;-65
2022/05/17 08:08:28;;;;;;;7.80;3.40;;;;;;;;;;4982882;28;20205;-68
2022/05/17 08:10:56;;;;;;;5.30;3.33;;;;;;;;;;4993674;28;20243;-68
2022/05/17 08:13:25;;;;;;;5.70;3.27;;;;;;;;;;5006711;28;20219;-68
2022/05/17 08:15:56;;;;;;;4.20;3.23;;;;;;;;;;5009001;28;20215;-68
2022/05/17 08:18:29;;;;;;;6.23;3.50;;;;;;;;;;4996396;28;20220;-69
2022/05/17 08:20:58;;;;;;;4.63;3.47;;;;;;;;;;5005317;28;20198;-68
2022/05/17 08:23:35;;;;;;;5.63;3.40;;;;;;;;;;5018989;28;20289;-68
2022/05/17 08:28:51;;;;;;;4.30;2.83;;;;;;;;;;5007739;28;20218;-67
2022/05/17 08:31:20;;;;;;;6.47;2.93;;;;;;;;;;4988796;28;20637;-68
2022/05/17 08:33:51;;;;;;;5.93;2.90;;;;;;;;;;4996521;28;20195;-68
2022/05/17 08:36:25;;;;;;;3.87;2.80;;;;;;;;;;4992571;28;20215;-67
2022/05/17 08:38:56;;;;;;;4.70;3.00;;;;;;;;;;5009459;28;20203;-69
2022/05/17 08:41:55;;;;;;;4.63;2.93;;;;;;;;;;5005701;28;20220;-69
2022/05/17 08:44:30;;;;;;;5.33;3.33;;;;;;;;;;5001400;28;20211;-67
2022/05/17 08:47:15;;;;;;;6.03;3.33;;;;;;;;;;5010781;28;20203;-68
2022/05/17 08:50:09;;;;;;;7.17;3.00;;;;;;;;;;4989817;28;20203;-68
2022/05/17 08:52:38;;;;;;;4.90;3.00;;;;;;;;;;4982939;28;20776;-67
2022/05/17 08:55:24;;;;;;;3.80;2.70;;;;;;;;;;5008793;28;20227;-69
2022/05/17 08:57:55;;;;;;;4.57;2.73;;;;;;;;;;5005662;28;20641;-68
2022/05/17 09:00:48;;;;;;;5.07;2.43;;;;;;;;;;5006072;28;20203;-69
2022/05/17 09:03:17;;;;;;;5.13;3.17;;;;;;;;;;5007593;28;20282;-68
2022/05/17 09:06:07;;;;;;;4.50;2.40;;;;;;;;;;5005283;28;20219;-67
2022/05/17 09:08:41;;;;;;;4.53;2.70;;;;;;;;;;5004873;28;20211;-67
2022/05/17 09:11:17;;;;;;;4.27;2.60;;;;;;;;;;5010924;28;20237;-65
2022/05/17 09:13:47;;;;;;;4.37;2.60;;;;;;;;;;5003365;28;20269;-65
2022/05/17 09:16:37;;;;;;;2.97;2.30;;;;;;;;;;4993995;28;20219;-65
2022/05/17 09:19:04;;;;;;;3.17;2.30;;;;;;;;;;4991208;28;20191;-65
2022/05/17 09:21:36;;;;;;;3.03;2.50;;;;;;;;;;4992904;28;20203;-66
2022/05/17 09:24:05;;;;;;;4.27;2.70;;;;;;;;;;5010835;28;20200;-65
2022/05/17 09:26:37;;;;;;;2.60;2.40;;;;;;;;;;5010354;28;20203;-66
2022/05/17 09:29:09;;;;;;;4.80;2.67;;;;;;;;;;5008530;28;20751;-66
2022/05/17 09:31:39;;;;;;;3.07;2.60;;;;;;;;;;4982716;28;20203;-65
2022/05/17 09:34:10;;;;;;;6.23;2.60;;;;;;;;;;5009968;28;20230;-65
2022/05/17 09:36:53;;;;;;;9.93;3.10;;;;;;;;;;4990573;28;20220;-68
2022/05/17 09:39:24;;;;;;;7.13;2.40;;;;;;;;;;5002237;28;20210;-64
2022/05/17 09:41:57;;;;;;;3.83;2.80;;;;;;;;;;4999525;28;20571;-65
2022/05/17 09:44:41;;;;;;;4.33;3.10;;;;;;;;;;5007239;28;20274;-65
2022/05/17 09:47:16;;;;;;;4.87;3.00;;;;;;;;;;5009517;28;20667;-65
2022/05/17 09:52:52;;;;;;;4.47;2.73;;;;;;;;;;4998452;28;20907;-64
2022/05/17 09:55:29;;;;;;;5.47;3.20;;;;;;;;;;5008953;28;20218;-61
2022/05/17 09:58:05;;;;;;;4.13;3.10;;;;;;;;;;4992260;28;20188;-62
2022/05/17 10:00:47;;;;;;;5.60;3.53;;;;;;;;;;5003278;28;20199;-62
2022/05/17 10:03:18;;;;;;;5.83;3.03;;;;;;;;;;4992138;28;20228;-62
2022/05/17 10:06:02;;;;;;;4.27;3.03;;;;;;;;;;4998744;28;20214;-62
2022/05/17 10:08:56;;;;;;;3.93;3.20;;;;;;;;;;4994907;28;20211;-62
2022/05/17 10:11:29;;;;;;;7.53;3.47;;;;;;;;;;5004088;28;20266;-62
2022/05/17 10:13:57;;;;;;;3.53;2.93;;;;;;;;;;5001660;28;20207;-62
2022/05/17 10:16:35;;;;;;;6.17;3.00;;;;;;;;;;4997604;28;20219;-64
2022/05/17 10:19:11;;;;;;;5.83;2.93;;;;;;;;;;5002165;28;20196;-63
2022/05/17 10:21:38;;;;;;;5.73;3.20;;;;;;;;;;5001622;28;20226;-63
2022/05/17 10:24:11;;;;;;;4.60;3.33;;;;;;;;;;4998529;28;20207;-62
2022/05/17 10:26:44;;;;;;;4.70;3.17;;;;;;;;;;5006315;28;20230;-62
2022/05/17 10:29:20;;;;;;;5.37;3.20;;;;;;;;;;5004175;28;20750;-63
2022/05/17 10:32:10;;;;;;;9.47;3.60;;;;;;;;;;5008288;28;20644;-64
2022/05/17 10:35:15;;;;;;;3.60;2.77;;;;;;;;;;4999949;28;20204;-64
2022/05/17 10:37:51;;;;;;;6.83;3.60;;;;;;;;;;5004832;28;20203;-62
2022/05/17 10:40:22;;;;;;;5.67;3.53;;;;;;;;;;4982785;28;20266;-62
2022/05/17 10:42:51;;;;;;;4.97;3.43;;;;;;;;;;5007600;28;20222;-62
2022/05/17 10:45:23;;;;;;;8.17;3.30;;;;;;;;;;5006416;28;20203;-61
2022/05/17 10:47:54;;;;;;;4.63;3.30;;;;;;;;;;4990828;28;20291;-62
2022/05/17 10:50:28;;;;;;;6.00;3.40;;;;;;;;;;5000994;28;20199;-62
2022/05/17 10:53:12;;;;;;;5.83;3.57;;;;;;;;;;5016980;28;20220;-62
2022/05/17 10:55:50;;;;;;;5.60;3.80;;;;;;;;;;5006854;28;20274;-62
2022/05/17 10:58:17;;;;;;;8.77;4.18;;;;;;;;;;5010080;28;20443;-65
2022/05/17 11:00:54;;;;;;;4.63;3.00;;;;;;;;;;4987207;28;20223;-65
2022/05/17 11:03:32;;;;;;;5.90;4.13;;;;;;;;;;5004235;28;20195;-66
2022/05/17 11:06:15;;;;;;;8.37;3.30;;;;;;;;;;4995184;28;20208;-67
2022/05/17 11:08:47;;;;;;;5.90;3.60;;;;;;;;;;5004967;28;20582;-67
2022/05/17 11:11:41;;;;;;;5.57;2.70;;;;;;;;;;5006638;28;20702;-68
2022/05/17 11:14:15;;;;;;;8.83;2.87;;;;;;;;;;4980862;28;20686;-67
2022/05/17 11:17:03;;;;;;;4.80;2.93;;;;;;;;;;5005221;28;20215;-69
2022/05/17 11:19:39;;;;;;;3.67;2.53;;;;;;;;;;5007846;28;20192;-67
2022/05/17 11:22:22;;;;;;;7.33;3.30;;;;;;;;;;5007276;28;20218;-70
2022/05/17 11:25:00;;;;;;;6.03;3.13;;;;;;;;;;5006514;28;20711;-69
2022/05/17 11:27:34;;;;;;;4.43;2.80;;;;;;;;;;5008711;28;20640;-69
2022/05/17 11:30:10;;;;;;;5.40;2.67;;;;;;;;;;5001204;28;20232;-68
2022/05/17 11:32:40;;;;;;;5.73;2.83;;;;;;;;;;5008933;28;20221;-66
2022/05/17 11:35:31;;;;;;;6.70;2.80;;;;;;;;;;4988823;28;20207;-66
2022/05/17 11:38:00;;;;;;;5.17;2.83;;;;;;;;;;4993683;28;20218;-67
2022/05/17 11:40:45;;;;;;;6.03;3.07;;;;;;;;;;4982579;28;20207;-68
2022/05/17 11:43:44;;;;;;;7.10;2.80;;;;;;;;;;5006548;28;20208;-67
2022/05/17 11:46:27;;;;;;;3.87;2.37;;;;;;;;;;4947353;28;20245;-65
2022/05/17 11:49:01;;;;;;;4.50;2.77;;;;;;;;;;4944522;28;20205;-66
2022/05/17 11:51:35;;;;;;;3.83;2.30;;;;;;;;;;4995193;28;20298;-66
2022/05/17 11:54:06;;;;;;;6.57;2.63;;;;;;;;;;4999371;28;20231;-66
2022/05/17 11:56:34;;;;;;;5.10;2.40;;;;;;;;;;5001371;28;20285;-66
2022/05/17 11:59:12;;;;;;;4.60;2.40;;;;;;;;;;5004363;28;20202;-69
2022/05/17 12:01:39;;;;;;;5.40;2.33;;;;;;;;;;5009264;28;20210;-67
2022/05/17 12:04:09;;;;;;;5.17;2.40;;;;;;;;;;5024956;28;20188;-66
2022/05/17 12:06:39;;;;;;;2.97;1.90;;;;;;;;;;5004010;28;20215;-68
2022/05/17 12:09:11;;;;;;;3.77;1.87;;;;;;;;;;5012678;28;20196;-68
2022/05/17 12:11:47;;;;;;;2.70;2.07;;;;;;;;;;5008476;28;20732;-68
2022/05/17 12:14:20;;;;;;;4.80;2.37;;;;;;;;;;5008121;28;20677;-69
2022/05/17 12:16:50;;;;;;;3.40;2.33;;;;;;;;;;4987997;28;20239;-68
2022/05/17 12:19:26;;;;;;;7.67;2.27;;;;;;;;;;5011057;28;20822;-68
2022/05/17 12:22:01;;;;;;;4.87;2.20;;;;;;;;;;4997919;28;20211;-67
2022/05/17 12:24:48;;;;;;;5.50;2.10;;;;;;;;;;5007510;28;20192;-69
2022/05/17 12:27:26;;;;;;;3.10;1.80;;;;;;;;;;5006424;28;20204;-68
2022/05/17 12:32:54;;;;;;;5.37;2.40;;;;;;;;;;4991839;28;20203;-68
2022/05/17 12:35:26;;;;;;;3.20;2.10;;;;;;;;;;5009158;28;20270;-67
2022/05/17 12:37:54;;;;;;;3.40;2.07;;;;;;;;;;5010074;28;20211;-66
2022/05/17 12:43:30;;;;;;;4.53;1.60;;;;;;;;;;4997805;28;20188;-68
2022/05/17 12:46:11;;;;;;;3.53;2.00;;;;;;;;;;4991152;28;20195;-67
2022/05/17 12:48:42;;;;;;;5.50;1.80;;;;;;;;;;4972321;28;20203;-67
2022/05/17 12:51:11;;;;;;;2.63;1.70;;;;;;;;;;4994144;28;20195;-66
2022/05/17 12:53:45;;;;;;;5.53;1.73;;;;;;;;;;5006064;28;20445;-68
2022/05/17 12:56:22;;;;;;;4.17;1.83;;;;;;;;;;5008674;28;20219;-66
2022/05/17 12:58:53;;;;;;;5.43;1.70;;;;;;;;;;4991259;28;20199;-66
2022/05/17 13:01:56;;;;;;;2.80;1.47;;;;;;;;;;5004522;28;20200;-70
2022/05/17 13:04:33;;;;;;;4.87;1.60;;;;;;;;;;4984847;28;20208;-68
2022/05/17 13:07:13;;;;;;;3.37;1.77;;;;;;;;;;4991680;28;20460;-66
2022/05/17 13:10:02;;;;;;;7.43;2.00;;;;;;;;;;5011171;28;20220;-66
2022/05/17 13:12:31;;;;;;;2.33;1.43;;;;;;;;;;4988319;28;20273;-65
2022/05/17 13:15:07;;;;;;;4.23;1.90;;;;;;;;;;4989116;28;20807;-70
2022/05/17 13:17:43;;;;;;;3.30;1.47;;;;;;;;;;4988971;28;20227;-70
2022/05/17 13:20:12;;;;;;;3.83;1.70;;;;;;;;;;4990854;28;20207;-68
2022/05/17 13:22:42;;;;;;;2.27;1.43;;;;;;;;;;5011549;28;20238;-70
2022/05/17 13:25:19;;;;;;;3.33;1.80;;;;;;;;;;4990170;28;20606;-69
2022/05/17 13:27:52;;;;;;;3.47;1.70;;;;;;;;;;5006658;28;20208;-67
2022/05/17 13:30:37;;;;;;;6.80;1.53;;;;;;;;;;4986739;28;20704;-67
2022/05/17 13:33:11;;;;;;;4.27;1.40;;;;;;;;;;5007549;28;20199;-69
2022/05/17 13:35:40;;;;;;;3.37;1.50;;;;;;;;;;5007974;28;20202;-66
2022/05/17 13:38:12;;;;;;;3.33;1.60;;;;;;;;;;5009866;28;20250;-66
2022/05/17 13:40:51;;;;;;;3.53;1.67;;;;;;;;;;5003860;28;23212;-65
2022/05/17 13:43:26;;;;;;;2.83;1.47;;;;;;;;;;5008859;28;20204;-65
2022/05/17 13:46:05;;;;;;;2.67;1.50;;;;;;;;;;4990865;28;20267;-65
2022/05/17 13:48:37;;;;;;;3.03;1.40;;;;;;;;;;4989743;28;20196;-65
2022/05/17 13:51:08;;;;;;;1.97;1.30;;;;;;;;;;4997299;28;20203;-65
2022/05/17 13:53:39;;;;;;;2.87;1.20;;;;;;;;;;5005713;28;20199;-65
2022/05/17 13:56:11;;;;;;;2.30;1.30;;;;;;;;;;5004978;28;20208;-65
2022/05/17 13:58:46;;;;;;;2.93;1.40;;;;;;;;;;4993300;28;20197;-65
2022/05/17 14:01:37;;;;;;;2.87;1.50;;;;;;;;;;4996331;28;20195;-62
2022/05/17 14:04:11;;;;;;;5.27;1.20;;;;;;;;;;5007167;28;20195;-67
2022/05/17 14:06:46;;;;;;;6.43;1.50;;;;;;;;;;5002956;28;20548;-66
2022/05/17 14:12:26;;;;;;;2.77;1.60;;;;;;;;;;5004131;28;20235;-66
2022/05/17 14:14:59;;;;;;;3.73;1.60;;;;;;;;;;5005770;28;20227;-64
2022/05/17 14:17:36;;;;;;;3.43;1.10;;;;;;;;;;5003448;28;20301;-65
2022/05/17 14:20:12;;;;;;;4.23;1.80;;;;;;;;;;5010662;28;20203;-64
2022/05/17 14:23:01;;;;;;;4.07;1.70;;;;;;;;;;5002728;28;20303;-65
2022/05/17 14:25:35;;;;;;;2.70;1.50;;;;;;;;;;5007849;28;20215;-65
2022/05/17 14:28:02;;;;;;;3.87;1.40;;;;;;;;;;5004822;28;20211;-64
2022/05/17 14:30:31;;;;;;;2.20;1.30;;;;;;;;;;5013043;28;20208;-64
2022/05/17 14:33:00;;;;;;;3.77;1.53;;;;;;;;;;5009947;28;20198;-64
2022/05/17 14:35:30;;;;;;;1.90;1.10;;;;;;;;;;5009092;28;20199;-65
2022/05/17 14:38:01;;;;;;;2.37;1.40;;;;;;;;;;4990318;28;20677;-65
2022/05/17 14:40:30;;;;;;;2.37;1.43;;;;;;;;;;5003324;28;20203;-65
2022/05/17 14:43:00;;;;;;;2.30;1.40;;;;;;;;;;5005500;28;20203;-65
2022/05/17 14:45:31;;;;;;;1.93;1.10;;;;;;;;;;5010700;28;20203;-63
2022/05/17 14:48:01;;;;;;;2.07;1.17;;;;;;;;;;4990368;28;20786;-64
2022/05/17 14:50:36;;;;;;;3.20;1.40;;;;;;;;;;5022926;28;20199;-64
2022/05/17 14:53:07;;;;;;;1.90;1.13;;;;;;;;;;5001887;28;20212;-63
2022/05/17 14:55:39;;;;;;;1.43;1.33;;;;;;;;;;5001990;28;20527;-65
2022/05/17 14:58:12;;;;;;;2.50;1.50;;;;;;;;;;5006241;28;20216;-65
2022/05/17 15:00:42;;;;;;;3.47;1.40;;;;;;;;;;4987756;28;20207;-64
2022/05/17 15:03:21;;;;;;;2.37;1.60;;;;;;;;;;5007429;28;20212;-67
2022/05/17 15:05:50;;;;;;;3.60;1.40;;;;;;;;;;5003016;28;20208;-66
2022/05/17 15:08:19;;;;;;;3.23;1.43;;;;;;;;;;5006305;28;20205;-64
2022/05/17 15:10:48;;;;;;;3.63;1.70;;;;;;;;;;5009042;28;20197;-63
2022/05/17 15:13:19;;;;;;;3.80;1.53;;;;;;;;;;4981844;28;20863;-62
2022/05/17 15:15:54;;;;;;;1.87;1.37;;;;;;;;;;4994613;28;20294;-62
2022/05/17 15:18:23;;;;;;;3.40;1.47;;;;;;;;;;4981928;28;20243;-63
2022/05/17 15:20:56;;;;;;;1.80;1.17;;;;;;;;;;4973639;28;20760;-62
2022/05/17 15:23:34;;;;;;;1.77;1.30;;;;;;;;;;4973453;28;20208;-62
2022/05/17 15:26:04;;;;;;;2.80;1.27;;;;;;;;;;4969734;28;20196;-62
2022/05/17 15:28:33;;;;;;;1.50;1.30;;;;;;;;;;5003310;28;20281;-62
2022/05/17 15:31:01;;;;;;;1.90;1.30;;;;;;;;;;4989658;28;20617;-65
2022/05/17 15:33:31;;;;;;;1.90;1.50;;;;;;;;;;4997929;28;20196;-64
2022/05/17 15:36:07;;;;;;;1.97;1.30;;;;;;;;;;4978953;28;20225;-64
2022/05/17 15:38:39;;;;;;;1.83;1.20;;;;;;;;;;4993296;28;20232;-64
2022/05/17 15:41:12;;;;;;;1.53;1.20;;;;;;;;;;4987720;28;20283;-63